Alys Beach, FL

11:39 PM CDT on October 24, 2014 (GMT -0500)
Destin-Fort Walton Beach | Change Station
CLOSE
Current Station
Airport
Location: Destin,
Elevation: 23 ft
Nearby Weather Stations

Elev 23 ft 30.39 °N, 86.47 °W | Updated 46 minutes ago

Clear
Clear
64 °F
Feels Like 64 °F
N
5
Wind Variable Wind from North

Today
High -- | Low -- °F
--% Chance of Precip.
Yesterday
High -- | Low -- °F
Precip. -- in
6:52 AM 6:03 PM
New Moon, 2% visible
Pressure 30.04 in
Visibility 10.0 miles
Clouds Clear
Dew Point 50 °F
Humidity 60%
Rainfall 0.00 in
Snow Depth Not available.
UV 0 out of 12
Pollen 4.10 out of 12
Air Quality Not available.
Flu Activity Local Activity
METAR KDTS 250353Z AUTO 35004KT 10SM CLR 18/10 A3005 RMK AO2 SLP173 T01780100 TSNO

More Conditions Fewer Conditions

Pressure 30.04 in
Visibility 10.0 miles
Clouds Clear
Dew Point 50 °F
Humidity 60%
Rainfall 0.00 in
Snow Depth Not available.
UV 0 out of 12
Pollen 4.10 out of 12
Air Quality Not available.
Flu Activity Local Activity
METAR KDTS 250353Z AUTO 35004KT 10SM CLR 18/10 A3005 RMK AO2 SLP173 T01780100 TSNO

More Conditions Fewer Conditions

10-Day Weather Forecast

Almanac

Astronomy

Oct. 24, 2014 Rise Set
Actual Time 6:52 AM CDT 6:03 PM CDT
Civil Twilight 6:27 AM CDT 6:27 PM CDT
Nautical Twilight 5:59 AM CDT 6:55 PM CDT
Astronomical Twilight 5:31 AM CDT 7:23 PM CDT
Moon 7:28 AM CDT (10/24) 6:46 PM CDT (10/24)
Length of Visible Light 12h 00m
Length of Day
11h 11m
Tomorrow will be 1m 40s shorter.
New Moon, 2% of the Moon is Illuminated
Oct 25
New Moon
Oct 30
First Quarter
Nov 6
Full
Nov 14
Last Quarter
Nov 22
New

Yesterday's Extremes

State Highs State Lows

Community

WunderPhotos

Upload Photos

1,764,782 photos uploaded!

Nearby

Snow Depth

Station Depth Elevation
No new snow has been reported.

Earthquake Activity

City Distance Mag. Time & Date
No recent earthquake activity has been reported nearby.
Minimum magnitude displayed is 2.5.

Coastal Water Temperatures

Place Temperature
Panama City, FL 75.0 °F
Panama City Beach, FL 75.9 °F
Apalachicola, FL 72.0 °F

Nearby Weather Stations